createdAt,value
2017-09-20T00:02:11.334Z,6.40
2017-09-20T00:04:40.955Z,5.93
2017-09-20T00:07:09.643Z,6.30
2017-09-20T00:09:38.686Z,6.90
2017-09-20T00:12:08.951Z,6.00
2017-09-20T00:14:37.598Z,5.63
2017-09-20T00:17:07.005Z,6.10
2017-09-20T00:19:36.398Z,6.23
2017-09-20T00:22:07.787Z,5.63
2017-09-20T00:24:36.217Z,5.50
2017-09-20T00:27:06.232Z,6.00
2017-09-20T00:29:35.032Z,6.73
2017-09-20T00:32:04.329Z,6.50
2017-09-20T00:34:33.236Z,6.90
2017-09-20T00:37:02.216Z,7.63
2017-09-20T00:39:32.387Z,6.57
2017-09-20T00:42:02.400Z,7.10
2017-09-20T00:44:31.952Z,6.57
2017-09-20T00:47:00.613Z,7.00
2017-09-20T00:49:29.988Z,10.50
2017-09-20T00:51:59.403Z,6.90
2017-09-20T00:54:28.249Z,9.10
2017-09-20T00:56:57.586Z,8.60
2017-09-20T00:59:26.990Z,11.93
2017-09-20T01:01:55.367Z,8.23
2017-09-20T01:04:24.722Z,8.47
2017-09-20T01:06:54.201Z,8.50
2017-09-20T01:09:22.503Z,8.20
2017-09-20T01:11:51.688Z,7.80
2017-09-20T01:14:20.290Z,7.63
2017-09-20T01:16:50.410Z,7.80
2017-09-20T01:19:18.127Z,7.30
2017-09-20T01:21:58.743Z,7.97
2017-09-20T01:24:28.638Z,6.50
2017-09-20T01:26:57.999Z,7.27
2017-09-20T01:29:26.819Z,7.63
2017-09-20T01:31:55.841Z,7.03
2017-09-20T01:34:25.131Z,6.33
2017-09-20T01:36:54.905Z,8.23
2017-09-20T01:39:23.946Z,7.60
2017-09-20T01:41:53.462Z,8.27
2017-09-20T01:44:23.652Z,8.03
2017-09-20T01:46:52.796Z,7.60
2017-09-20T01:49:22.013Z,7.90
2017-09-20T01:51:51.402Z,8.27
2017-09-20T01:54:19.791Z,8.53
2017-09-20T01:56:48.325Z,8.40
2017-09-20T01:59:18.099Z,8.70
2017-09-20T02:01:47.194Z,8.00
2017-09-20T02:04:16.807Z,8.73
2017-09-20T02:06:44.964Z,8.80
2017-09-20T02:09:13.102Z,8.90
2017-09-20T02:11:43.451Z,8.17
2017-09-20T02:14:13.925Z,8.77
2017-09-20T02:16:42.039Z,6.83
2017-09-20T02:19:10.788Z,6.00
2017-09-20T02:21:39.749Z,6.97
2017-09-20T02:24:07.843Z,8.70
2017-09-20T02:26:37.963Z,6.97
2017-09-20T02:29:07.881Z,8.00
2017-09-20T02:31:37.464Z,7.60
2017-09-20T02:34:06.829Z,7.63
2017-09-20T02:36:36.687Z,8.40
2017-09-20T02:39:06.448Z,8.27
2017-09-20T02:41:37.595Z,9.57
2017-09-20T02:44:05.904Z,9.50
2017-09-20T02:46:34.288Z,9.43
2017-09-20T02:49:04.704Z,9.30
2017-09-20T02:51:33.037Z,8.07
2017-09-20T02:54:01.986Z,9.30
2017-09-20T02:56:30.558Z,9.47
2017-09-20T02:58:59.395Z,8.97
2017-09-20T03:01:28.052Z,7.97
2017-09-20T03:03:57.985Z,7.70
2017-09-20T03:06:27.295Z,10.17
2017-09-20T03:08:56.032Z,10.33
2017-09-20T03:11:25.464Z,10.93
2017-09-20T03:13:54.635Z,10.97
2017-09-20T03:16:25.426Z,12.80
2017-09-20T03:18:54.275Z,12.20
2017-09-20T03:21:23.266Z,13.47
2017-09-20T03:23:51.905Z,12.63
2017-09-20T03:26:22.169Z,13.07
2017-09-20T03:28:50.297Z,13.30
2017-09-20T03:31:18.410Z,14.40
2017-09-20T03:33:48.062Z,14.97
2017-09-20T03:36:16.907Z,13.23
2017-09-20T03:38:45.632Z,13.40
2017-09-20T03:41:14.565Z,11.70
2017-09-20T03:43:45.507Z,14.03
2017-09-20T03:46:15.140Z,13.17
2017-09-20T03:48:43.240Z,11.70
2017-09-20T03:51:13.527Z,11.63
2017-09-20T03:53:43.283Z,11.57
2017-09-20T03:56:12.332Z,10.53
2017-09-20T03:58:41.297Z,12.00
2017-09-20T04:01:09.614Z,11.47
2017-09-20T04:03:37.725Z,12.63
2017-09-20T04:06:07.190Z,12.50
2017-09-20T04:08:36.054Z,12.50
2017-09-20T04:11:06.158Z,11.20
2017-09-20T04:13:35.679Z,14.63
2017-09-20T04:16:05.532Z,16.53
2017-09-20T04:18:34.895Z,19.00
2017-09-20T04:21:05.143Z,12.00
2017-09-20T04:23:33.569Z,12.10
2017-09-20T04:26:01.875Z,12.07
2017-09-20T04:28:31.119Z,12.87
2017-09-20T04:30:58.843Z,13.00
2017-09-20T04:33:27.419Z,11.97
2017-09-20T04:35:58.611Z,11.70
2017-09-20T04:38:27.894Z,11.53
2017-09-20T04:40:57.462Z,13.17
2017-09-20T04:43:27.011Z,11.40
2017-09-20T04:45:56.457Z,12.63
2017-09-20T04:48:26.897Z,13.23
2017-09-20T04:50:55.596Z,12.90
2017-09-20T04:53:23.665Z,12.47
2017-09-20T04:55:54.199Z,16.90
2017-09-20T04:58:23.217Z,13.47
2017-09-20T05:00:52.108Z,13.03
2017-09-20T05:03:20.934Z,14.07
2017-09-20T05:05:50.434Z,14.50
2017-09-20T05:08:21.046Z,13.63
2017-09-20T05:10:49.779Z,16.07
2017-09-20T05:13:18.918Z,16.63
2017-09-20T05:15:47.853Z,18.47
2017-09-20T05:18:17.751Z,15.43
2017-09-20T05:20:47.088Z,14.40
2017-09-20T05:23:15.295Z,14.53
2017-09-20T05:25:44.068Z,14.30
2017-09-20T05:28:12.213Z,15.60
2017-09-20T05:30:40.643Z,16.00
2017-09-20T05:33:10.350Z,15.00
2017-09-20T05:35:38.730Z,15.70
2017-09-20T05:38:08.466Z,15.67
2017-09-20T05:40:37.535Z,14.83
2017-09-20T05:43:07.274Z,15.00
2017-09-20T05:45:36.244Z,15.73
2017-09-20T05:48:04.354Z,14.53
2017-09-20T05:50:32.940Z,15.40
2017-09-20T05:53:02.356Z,15.30
2017-09-20T05:55:30.662Z,20.83
2017-09-20T05:57:59.343Z,14.40
2017-09-20T06:00:27.625Z,14.30
2017-09-20T06:02:55.814Z,16.97
2017-09-20T06:05:25.025Z,15.20
2017-09-20T06:07:53.296Z,14.97
2017-09-20T06:10:21.283Z,18.97
2017-09-20T06:12:49.942Z,19.73
2017-09-20T06:15:18.436Z,16.10
2017-09-20T06:17:47.458Z,15.50
2017-09-20T06:20:16.900Z,16.80
2017-09-20T06:22:45.198Z,15.37
2017-09-20T06:25:15.182Z,15.73
2017-09-20T06:27:43.856Z,17.87
2017-09-20T06:30:13.483Z,16.10
2017-09-20T06:32:42.405Z,14.63
2017-09-20T06:35:11.817Z,12.93
2017-09-20T06:37:41.997Z,13.90
2017-09-20T06:40:13.066Z,12.63
2017-09-20T06:42:42.018Z,10.00
2017-09-20T06:45:10.319Z,11.30
2017-09-20T06:47:39.588Z,11.90
2017-09-20T06:50:09.377Z,12.83
2017-09-20T06:52:39.391Z,12.77
2017-09-20T06:55:08.944Z,15.20
2017-09-20T06:57:37.067Z,13.50
2017-09-20T07:00:05.508Z,14.03
2017-09-20T07:02:34.902Z,19.60
2017-09-20T07:05:05.101Z,14.27
2017-09-20T07:07:35.526Z,12.00
2017-09-20T07:10:06.767Z,12.87
2017-09-20T07:12:35.015Z,15.17
2017-09-20T07:15:04.133Z,13.70
2017-09-20T07:17:33.173Z,13.67
2017-09-20T07:20:00.994Z,14.60
2017-09-20T07:22:31.539Z,14.53
2017-09-20T07:24:59.579Z,15.17
2017-09-20T07:27:28.263Z,15.60
2017-09-20T07:29:56.462Z,15.43
2017-09-20T07:32:25.388Z,14.70
2017-09-20T07:34:55.750Z,13.23
2017-09-20T07:37:24.879Z,14.70
2017-09-20T07:39:53.712Z,16.07
2017-09-20T07:42:22.758Z,13.60
2017-09-20T07:44:50.902Z,17.83
2017-09-20T07:47:20.089Z,13.57
2017-09-20T07:49:48.771Z,16.40
2017-09-20T07:52:17.908Z,13.93
2017-09-20T07:54:46.558Z,13.63
2017-09-20T07:57:16.500Z,14.03
2017-09-20T07:59:45.254Z,12.83
2017-09-20T08:02:15.230Z,17.90
2017-09-20T08:04:44.116Z,13.47
2017-09-20T08:07:13.162Z,13.93
2017-09-20T08:09:42.420Z,14.80
2017-09-20T08:12:12.740Z,17.70
2017-09-20T08:14:40.870Z,15.80
2017-09-20T08:17:09.873Z,16.33
2017-09-20T08:19:39.298Z,16.00
2017-09-20T08:22:07.605Z,17.40
2017-09-20T08:24:36.438Z,14.63
2017-09-20T08:27:05.491Z,18.23
2017-09-20T08:29:34.624Z,20.27
2017-09-20T08:32:04.061Z,15.50
2017-09-20T08:34:34.016Z,15.03
2017-09-20T08:37:03.667Z,14.73
2017-09-20T08:39:31.324Z,15.00
2017-09-20T08:41:59.486Z,15.23
2017-09-20T08:44:28.681Z,15.23
2017-09-20T08:46:57.281Z,13.77
2017-09-20T08:49:25.769Z,15.23
2017-09-20T08:51:55.767Z,14.37
2017-09-20T08:54:24.242Z,20.43
2017-09-20T08:56:52.758Z,16.03
2017-09-20T08:59:22.095Z,13.17
2017-09-20T09:01:51.543Z,14.97
2017-09-20T09:04:21.434Z,14.23
2017-09-20T09:06:50.454Z,15.13
2017-09-20T09:09:18.549Z,16.83
2017-09-20T09:11:48.028Z,17.63
2017-09-20T09:14:16.053Z,19.30
2017-09-20T09:16:46.904Z,15.20
2017-09-20T09:19:17.515Z,16.83
2017-09-20T09:31:39.296Z,16.67
2017-09-20T09:34:07.692Z,15.40
2017-09-20T09:39:41.981Z,15.80
2017-09-20T09:42:11.586Z,14.23
2017-09-20T09:44:43.302Z,13.00
2017-09-20T09:47:12.212Z,13.73
2017-09-20T09:49:42.813Z,14.73
2017-09-20T09:52:12.943Z,16.30
2017-09-20T09:54:42.916Z,14.60
2017-09-20T09:57:12.286Z,13.57
2017-09-20T09:59:42.513Z,12.43
2017-09-20T10:02:11.597Z,15.63
2017-09-20T10:04:40.802Z,14.43
2017-09-20T10:07:10.325Z,15.10
2017-09-20T10:09:39.930Z,14.63
2017-09-20T10:12:08.056Z,15.30
2017-09-20T10:14:37.808Z,15.07
2017-09-20T10:17:05.957Z,17.27
2017-09-20T10:19:34.391Z,16.17
2017-09-20T10:22:04.599Z,14.63
2017-09-20T10:34:14.182Z,13.80
2017-09-20T10:36:43.738Z,14.90
2017-09-20T10:39:14.210Z,16.90
2017-09-20T10:41:43.048Z,14.47
2017-09-20T10:44:12.661Z,12.60
2017-09-20T10:46:42.280Z,18.23
2017-09-20T10:49:13.078Z,13.30
2017-09-20T10:51:42.458Z,14.33
2017-09-20T10:54:13.770Z,14.43
2017-09-20T10:56:44.084Z,16.17
2017-09-20T10:59:13.694Z,12.67
2017-09-20T11:01:42.296Z,10.50
2017-09-20T11:13:51.170Z,25.20
2017-09-20T11:16:20.685Z,15.10
2017-09-20T11:18:50.142Z,18.00
2017-09-20T11:21:18.242Z,15.23
2017-09-20T11:23:48.202Z,13.80
2017-09-20T11:26:18.507Z,17.93
2017-09-20T11:28:47.260Z,13.33
2017-09-20T11:31:18.034Z,10.30
2017-09-20T11:33:47.076Z,12.50
2017-09-20T11:36:19.770Z,12.60
2017-09-20T11:38:48.002Z,13.67
2017-09-20T11:41:16.260Z,13.50
2017-09-20T11:43:45.259Z,11.60
2017-09-20T11:46:17.890Z,20.53
2017-09-20T11:48:48.270Z,12.30
2017-09-20T11:51:18.257Z,10.77
2017-09-20T11:53:48.795Z,13.03
2017-09-20T11:56:17.801Z,15.27
2017-09-20T11:58:50.938Z,12.30
2017-09-20T12:01:20.014Z,11.10
2017-09-20T12:03:50.310Z,12.30
2017-09-20T12:06:19.399Z,11.60
2017-09-20T12:08:48.663Z,10.97
2017-09-20T12:11:17.011Z,12.80
2017-09-20T12:13:45.597Z,13.30
2017-09-20T12:16:37.281Z,15.37
2017-09-20T12:23:47.145Z,15.20
2017-09-20T12:31:59.622Z,14.70
2017-09-20T12:47:13.127Z,15.53
2017-09-20T12:49:41.897Z,16.70
2017-09-20T12:52:12.174Z,20.27
2017-09-20T12:54:41.526Z,16.43
2017-09-20T12:57:11.514Z,14.90
2017-09-20T12:59:40.080Z,17.47
2017-09-20T13:02:09.621Z,17.67
2017-09-20T13:04:38.536Z,18.50
2017-09-20T13:07:10.966Z,15.10
2017-09-20T13:09:40.854Z,15.77
2017-09-20T13:12:12.328Z,15.67
2017-09-20T13:14:40.998Z,15.03
2017-09-20T13:17:10.905Z,20.00
2017-09-20T13:19:43.601Z,14.57
2017-09-20T13:22:12.875Z,14.77
2017-09-20T13:24:41.334Z,18.87
2017-09-20T13:27:10.615Z,20.23
2017-09-20T13:29:40.233Z,20.80
2017-09-20T13:32:13.081Z,25.83
2017-09-20T13:34:43.176Z,16.40
2017-09-20T13:37:13.194Z,19.50
2017-09-20T13:39:42.407Z,17.70
2017-09-20T13:42:10.666Z,16.10
2017-09-20T13:44:40.337Z,18.03
2017-09-20T13:47:10.421Z,17.93
2017-09-20T13:49:39.422Z,17.60
2017-09-20T13:52:08.389Z,20.23
2017-09-20T13:54:36.816Z,16.37
2017-09-20T13:57:05.896Z,17.83
2017-09-20T14:09:15.084Z,17.20
2017-09-20T14:11:43.553Z,18.20
2017-09-20T14:14:12.733Z,17.93
2017-09-20T14:16:41.501Z,15.60
2017-09-20T14:19:10.512Z,20.50
2017-09-20T14:21:39.101Z,21.53
2017-09-20T14:24:07.258Z,16.23
2017-09-20T14:26:35.886Z,22.27
2017-09-20T14:29:04.145Z,15.23
2017-09-20T14:31:33.247Z,18.20
2017-09-20T14:34:02.176Z,18.77
2017-09-20T14:36:33.948Z,20.33
2017-09-20T14:39:02.520Z,15.90
2017-09-20T14:44:37.239Z,14.03
2017-09-20T14:47:15.493Z,16.27
2017-09-20T14:52:52.224Z,16.13
2017-09-20T14:55:29.737Z,14.67
2017-09-20T14:58:00.266Z,16.37
2017-09-20T15:00:28.504Z,16.30
2017-09-20T15:02:58.514Z,14.97
2017-09-20T15:05:28.390Z,14.17
2017-09-20T15:07:57.696Z,14.00
2017-09-20T15:10:27.145Z,14.03
2017-09-20T15:12:56.339Z,16.70
2017-09-20T15:15:29.640Z,13.53
2017-09-20T15:21:02.631Z,14.17
2017-09-20T15:23:42.677Z,14.97
2017-09-20T15:26:10.289Z,12.50
2017-09-20T15:28:39.638Z,13.90
2017-09-20T15:34:13.294Z,11.90
2017-09-20T15:36:45.976Z,11.40
2017-09-20T15:42:28.982Z,12.27
2017-09-20T15:44:58.190Z,12.33
2017-09-20T15:47:27.259Z,12.10
2017-09-20T15:49:56.489Z,11.73
2017-09-20T15:52:25.718Z,13.83
2017-09-20T15:54:55.292Z,11.57
2017-09-20T15:57:24.486Z,14.20
2017-09-20T15:59:53.512Z,11.87
2017-09-20T16:02:23.088Z,10.80
2017-09-20T16:04:50.864Z,13.47
2017-09-20T16:07:19.668Z,11.30
2017-09-20T16:09:49.061Z,11.57
2017-09-20T16:12:17.695Z,13.10
2017-09-20T16:14:46.432Z,13.70
2017-09-20T16:17:15.444Z,12.13
2017-09-20T16:19:44.528Z,11.90
2017-09-20T16:22:14.025Z,10.10
2017-09-20T16:24:42.104Z,10.83
2017-09-20T16:27:12.164Z,10.50
2017-09-20T16:29:42.776Z,14.00
2017-09-20T16:32:11.264Z,11.90
2017-09-20T16:34:39.669Z,11.50
2017-09-20T16:37:12.810Z,11.40
2017-09-20T16:39:40.874Z,11.00
2017-09-20T16:42:09.530Z,13.20
2017-09-20T16:44:37.737Z,13.70
2017-09-20T16:47:06.970Z,13.43
2017-09-20T16:49:35.309Z,14.10
2017-09-20T16:52:06.426Z,15.13
2017-09-20T16:54:38.291Z,14.47
2017-09-20T16:57:07.181Z,13.53
2017-09-20T16:59:38.025Z,17.10
2017-09-20T17:02:08.305Z,15.37
2017-09-20T17:04:37.266Z,14.60
2017-09-20T17:07:06.560Z,14.93
2017-09-20T17:09:36.710Z,16.10
2017-09-20T17:12:10.649Z,18.80
2017-09-20T17:14:41.146Z,21.50
2017-09-20T17:17:10.014Z,18.70
2017-09-20T17:19:41.335Z,17.67
2017-09-20T17:22:10.729Z,17.77
2017-09-20T17:24:40.638Z,15.07
2017-09-20T17:27:09.413Z,19.23
2017-09-20T17:29:37.009Z,17.90
2017-09-20T17:32:04.561Z,17.03
2017-09-20T17:34:32.941Z,17.43
2017-09-20T17:37:02.899Z,21.37
2017-09-20T17:39:32.013Z,20.70
2017-09-20T17:42:01.544Z,17.20
2017-09-20T17:44:29.435Z,16.80
2017-09-20T17:46:57.735Z,17.23
2017-09-20T17:49:26.475Z,16.83
2017-09-20T17:51:54.650Z,21.90
2017-09-20T17:54:24.914Z,18.93
2017-09-20T17:56:54.285Z,17.70
2017-09-20T17:59:23.689Z,25.97
2017-09-20T18:01:55.727Z,22.37
2017-09-20T18:04:26.021Z,20.13
2017-09-20T18:06:54.485Z,19.80
2017-09-20T18:09:23.855Z,19.50
2017-09-20T18:11:54.586Z,24.23
2017-09-20T18:14:22.394Z,17.00
2017-09-20T18:16:51.965Z,21.60
2017-09-20T18:19:22.827Z,18.83
2017-09-20T18:21:54.700Z,16.40
2017-09-20T18:24:24.065Z,18.23
2017-09-20T18:26:53.660Z,17.50
2017-09-20T18:29:23.669Z,14.77
2017-09-20T18:31:52.031Z,16.40
2017-09-20T18:34:21.438Z,16.20
2017-09-20T18:36:50.735Z,17.20
2017-09-20T18:39:18.753Z,16.30
2017-09-20T18:41:48.385Z,18.00
2017-09-20T18:44:26.178Z,18.40
2017-09-20T18:46:54.960Z,16.00
2017-09-20T18:49:24.402Z,17.20
2017-09-20T18:51:53.351Z,16.00
2017-09-20T18:54:22.158Z,17.40
2017-09-20T18:56:51.115Z,19.57
2017-09-20T18:59:21.178Z,15.70
2017-09-20T19:01:50.707Z,15.90
2017-09-20T19:17:15.837Z,18.30
2017-09-20T19:19:45.601Z,15.07
2017-09-20T19:22:15.905Z,17.30
2017-09-20T19:37:41.682Z,15.00
2017-09-20T19:40:10.222Z,15.67
2017-09-20T19:42:41.463Z,15.83
2017-09-20T19:45:11.178Z,14.50
2017-09-20T19:47:40.308Z,13.73
2017-09-20T19:50:10.377Z,13.53
2017-09-20T19:52:43.801Z,14.53
2017-09-20T19:55:13.729Z,11.40
2017-09-20T19:57:44.085Z,12.50
2017-09-20T20:00:11.764Z,13.83
2017-09-20T20:02:43.461Z,12.10
2017-09-20T20:05:12.168Z,11.57
2017-09-20T20:07:48.607Z,15.40
2017-09-20T20:10:19.110Z,11.43
2017-09-20T20:12:48.602Z,11.60
2017-09-20T20:15:19.628Z,21.53
2017-09-20T20:34:00.348Z,17.50
2017-09-20T20:36:31.070Z,13.17
2017-09-20T20:48:40.136Z,13.50
2017-09-20T20:51:10.005Z,11.40
2017-09-20T21:02:37.059Z,12.63
2017-09-20T21:05:13.656Z,15.13
2017-09-20T21:07:45.552Z,13.97
2017-09-20T21:10:16.938Z,14.83
2017-09-20T21:22:27.461Z,14.40
2017-09-20T21:24:57.544Z,13.30
2017-09-20T21:37:06.167Z,15.63
2017-09-20T21:39:36.590Z,15.93
2017-09-20T21:42:05.927Z,17.87
2017-09-20T21:44:34.915Z,14.60
2017-09-20T21:47:05.261Z,16.73
2017-09-20T21:49:34.293Z,15.63
2017-09-20T21:52:03.820Z,18.13
2017-09-20T21:54:32.215Z,15.90
2017-09-20T21:57:01.792Z,14.83
2017-09-20T21:59:31.014Z,15.50
2017-09-20T22:14:52.205Z,15.43
2017-09-20T22:17:32.460Z,17.13
2017-09-20T22:20:13.627Z,14.50
2017-09-20T22:25:39.382Z,12.30
2017-09-20T22:28:09.598Z,12.60
2017-09-20T22:30:39.072Z,13.87
2017-09-20T22:33:10.985Z,13.03
2017-09-20T22:35:39.855Z,12.40
2017-09-20T22:38:08.605Z,12.60
2017-09-20T22:40:39.083Z,14.60
2017-09-20T22:43:08.365Z,13.03
2017-09-20T22:45:36.503Z,12.90
2017-09-20T22:48:05.889Z,11.80
2017-09-20T22:50:35.163Z,12.57
2017-09-20T22:53:04.495Z,13.57
2017-09-20T22:55:33.405Z,12.67
2017-09-20T22:58:01.631Z,10.60
2017-09-20T23:00:29.720Z,10.57
2017-09-20T23:02:58.760Z,11.03
2017-09-20T23:05:28.414Z,11.47
2017-09-20T23:07:57.506Z,10.40
2017-09-20T23:10:25.988Z,9.90
2017-09-20T23:12:54.508Z,12.40
2017-09-20T23:15:23.083Z,11.33
2017-09-20T23:17:51.961Z,13.03
2017-09-20T23:20:21.486Z,11.93
2017-09-20T23:22:51.376Z,12.20
2017-09-20T23:25:19.017Z,12.90
2017-09-20T23:27:49.994Z,11.13
2017-09-20T23:30:20.308Z,11.90
2017-09-20T23:32:50.227Z,10.77
2017-09-20T23:35:18.234Z,12.90
2017-09-20T23:37:47.652Z,14.47
2017-09-20T23:40:16.666Z,12.67
2017-09-20T23:42:45.696Z,16.50
2017-09-20T23:45:14.173Z,12.00
2017-09-20T23:47:43.754Z,13.70
2017-09-20T23:50:11.863Z,14.80
2017-09-20T23:52:40.444Z,14.13
2017-09-20T23:55:10.633Z,15.03
2017-09-20T23:57:40.058Z,15.80
